Paredes Garcia — EA2886 — position and weather

sailwx.info

Track history (hours):
 
Tides and Currents Weather Stations Pressure Air Temp Water Temp Dewpoint Dewpoint Depression Visibility Wind Speed Wind Dir Waves Ship Positions

Paredes Garcia

Last reported at 2017-Oct-05 23:11 UTC. Time now 2017-Oct-19 02:13 UTC.
Position N 38°31' E 000°16'.
Warning: this ship's position is 13 days out of date.

Length 19 m.

Type: Fishing. MMSI: 224020840.

Date/timePositionNaut miles runAvg speedWind from/ knotsBaromVisibWave heightAir tempDewpointWater temp
2017-Oct-05 23:11N 38°31' E 000°16'57 1.2
2017-Oct-03 22:40N 37°44' W 000°25'2 7.9
2017-Oct-03 22:28N 37°44' W 000°26'4 8.1
2017-Oct-03 21:55N 37°46' W 000°32'3 8.2
2017-Oct-03 21:30N 37°47' W 000°36'4 8.6
2017-Oct-03 21:00N 37°48' W 000°41'4 7.1
2017-Oct-03 20:30N 37°49' W 000°45'0 0.0
2017-Oct-03 20:00N 37°49' W 000°45'0 0.0
2017-Oct-03 19:30N 37°49' W 000°45'0 0.0
2017-Oct-03 19:00N 37°49' W 000°45'0 0.0
2017-Oct-03 18:30N 37°49' W 000°45'0 0.0
2017-Oct-03 18:00N 37°49' W 000°45'0 0.0
2017-Oct-03 17:30N 37°49' W 000°45'0 0.0
2017-Oct-03 17:00N 37°49' W 000°45'0 0.0
2017-Oct-03 16:30N 37°49' W 000°45'0 0.0
2017-Oct-03 16:00N 37°49' W 000°45'0 0.0
2017-Oct-03 15:30N 37°49' W 000°45'0 0.0
2017-Oct-03 15:00N 37°49' W 000°45'0 0.0
2017-Oct-03 14:00N 37°49' W 000°45'0 0.0
2017-Oct-03 13:30N 37°49' W 000°45'0 0.0
2017-Oct-03 13:00N 37°49' W 000°45'0 0.0
2017-Oct-03 12:30N 37°49' W 000°45'0 0.0
2017-Oct-03 12:00N 37°49' W 000°45'0 0.0
2017-Oct-03 11:30N 37°49' W 000°45'0 0.0
2017-Oct-03 11:00N 37°49' W 000°45'0 0.0
2017-Oct-03 10:28N 37°49' W 000°45'0 0.0
2017-Oct-03 10:00N 37°49' W 000°45'0 0.0
2017-Oct-03 09:30N 37°49' W 000°45'0 0.2
2017-Oct-03 09:00N 37°49' W 000°45'0 0.2
2017-Oct-03 08:30N 37°49' W 000°45'0 0.0
2017-Oct-03 08:00N 37°49' W 000°45'1 1.2
2017-Oct-03 07:30N 37°49' W 000°45'5 9.4
2017-Oct-03 07:00N 37°48' W 000°39'5 9.3
2017-Oct-03 06:30N 37°46' W 000°33'7 6.6
2017-Oct-03 05:23N 37°44' W 000°24'18 0.6
2017-Oct-01 21:46N 38°00' W 000°33'2 9.2
2017-Oct-01 21:31N 37°59' W 000°36'4 8.6
2017-Oct-01 20:59N 37°58' W 000°41'1 1.1
2017-Oct-01 20:30N 37°58' W 000°41'  
2017-Sep-29 08:03N 37°58' W 000°41'0 0.1
2017-Sep-29 07:40N 37°58' W 000°41'0 1.9
2017-Sep-29 07:30N 37°58' W 000°41'13 3.3
2017-Sep-29 03:26N 37°57' W 000°24'9 0.3
2017-Sep-27 19:33N 37°60' W 000°36'1 9.0
2017-Sep-27 19:29N 37°60' W 000°37'4 7.9
2017-Sep-27 18:59N 37°58' W 000°41'0 0.0
2017-Sep-27 09:28N 37°58' W 000°41'0 0.0
2017-Sep-27 08:58N 37°58' W 000°41'0 0.0
2017-Sep-27 08:10N 37°58' W 000°41'0 0.0
2017-Sep-27 08:00N 37°58' W 000°41'0 0.0
2017-Sep-27 06:49N 37°58' W 000°41'9 6.8
2017-Sep-27 05:30N 37°53' W 000°31'0 0.1
2017-Sep-27 05:00N 37°53' W 000°31'2 4.2
2017-Sep-27 04:30N 37°55' W 000°30'2 3.3
2017-Sep-27 03:56N 37°55' W 000°33'4 8.5
2017-Sep-27 03:30N 37°57' W 000°37'3 5.6
2017-Sep-27 02:54N 37°58' W 000°41'0 0.0
2017-Sep-27 02:28N 37°58' W 000°41'0 0.0
2017-Sep-27 01:57N 37°58' W 000°41'0 0.0
2017-Sep-27 01:28N 37°58' W 000°41'0 0.0
2017-Sep-27 00:59N 37°58' W 000°41'0 0.0
2017-Sep-27 00:30N 37°58' W 000°41'0 0.0
2017-Sep-26 23:58N 37°58' W 000°41'0 0.0
2017-Sep-26 23:30N 37°58' W 000°41'0 0.0
2017-Sep-26 22:54N 37°58' W 000°41'0 0.0
2017-Sep-26 22:29N 37°58' W 000°41'0 0.0
2017-Sep-26 21:21N 37°58' W 000°41'0 0.0
2017-Sep-26 21:00N 37°58' W 000°41'0 0.0
2017-Sep-26 20:29N 37°58' W 000°41'0 0.0
2017-Sep-26 20:00N 37°58' W 000°41'0 0.0
2017-Sep-26 19:29N 37°58' W 000°41'0 0.0
2017-Sep-26 19:00N 37°58' W 000°41'0 0.0
2017-Sep-26 18:30N 37°58' W 000°41'0 0.0
2017-Sep-26 18:00N 37°58' W 000°41'0 0.0
2017-Sep-26 17:29N 37°58' W 000°41'0 0.0
2017-Sep-26 16:59N 37°58' W 000°41'0 0.0
2017-Sep-26 16:28N 37°58' W 000°41'0 0.0
2017-Sep-26 16:00N 37°58' W 000°41'0 0.0
2017-Sep-26 15:30N 37°58' W 000°41'0 0.0
2017-Sep-26 15:00N 37°58' W 000°41'0 0.0
2017-Sep-26 14:30N 37°58' W 000°41'0 0.0
2017-Sep-26 14:00N 37°58' W 000°41'0 0.0
2017-Sep-26 10:36N 37°58' W 000°41'0 0.0
2017-Sep-26 08:47N 37°58' W 000°41'0 0.0
2017-Sep-26 08:28N 37°58' W 000°41'0 0.0
2017-Sep-26 07:59N 37°58' W 000°41'0 0.0
2017-Sep-26 07:30N 37°58' W 000°41'0 0.0
2017-Sep-26 07:00N 37°58' W 000°41'0 0.0
2017-Sep-26 02:52N 37°58' W 000°41'8 8.0
2017-Sep-26 01:54N 37°54' W 000°32'0 0.7
2017-Sep-26 01:30N 37°54' W 000°32'1 1.1
2017-Sep-26 01:00N 37°54' W 000°33'0 0.5
2017-Sep-26 00:30N 37°54' W 000°33'0 0.8
2017-Sep-26 00:00N 37°54' W 000°33'1 1.4
2017-Sep-25 23:30N 37°53' W 000°33'  
Track history (hours):
 
Tides and Currents Weather Stations Pressure Air Temp Water Temp Dewpoint Dewpoint Depression Visibility Wind Speed Wind Dir Waves Ship Positions

Paredes Garcia

Last reported at 2017-Oct-05 23:11 UTC. Time now 2017-Oct-19 02:13 UTC.
Position N 38°31' E 000°16'.
Warning: this ship's position is 13 days out of date.

Length 19 m.

Type: Fishing. MMSI: 224020840.

Date/timePositionNaut miles runAvg speedWind from/ knotsBaromVisibWave heightAir tempDewpointWater temp
2017-Oct-05 23:11N 38°31' E 000°16'57 1.2
2017-Oct-03 22:40N 37°44' W 000°25'2 7.9
2017-Oct-03 22:28N 37°44' W 000°26'4 8.1
2017-Oct-03 21:55N 37°46' W 000°32'3 8.2
2017-Oct-03 21:30N 37°47' W 000°36'4 8.6
2017-Oct-03 21:00N 37°48' W 000°41'4 7.1
2017-Oct-03 20:30N 37°49' W 000°45'0 0.0
2017-Oct-03 20:00N 37°49' W 000°45'0 0.0
2017-Oct-03 19:30N 37°49' W 000°45'0 0.0
2017-Oct-03 19:00N 37°49' W 000°45'0 0.0
2017-Oct-03 18:30N 37°49' W 000°45'0 0.0
2017-Oct-03 18:00N 37°49' W 000°45'0 0.0
2017-Oct-03 17:30N 37°49' W 000°45'0 0.0
2017-Oct-03 17:00N 37°49' W 000°45'0 0.0
2017-Oct-03 16:30N 37°49' W 000°45'0 0.0
2017-Oct-03 16:00N 37°49' W 000°45'0 0.0
2017-Oct-03 15:30N 37°49' W 000°45'0 0.0
2017-Oct-03 15:00N 37°49' W 000°45'0 0.0
2017-Oct-03 14:00N 37°49' W 000°45'0 0.0
2017-Oct-03 13:30N 37°49' W 000°45'0 0.0
2017-Oct-03 13:00N 37°49' W 000°45'0 0.0
2017-Oct-03 12:30N 37°49' W 000°45'0 0.0
2017-Oct-03 12:00N 37°49' W 000°45'0 0.0
2017-Oct-03 11:30N 37°49' W 000°45'0 0.0
2017-Oct-03 11:00N 37°49' W 000°45'0 0.0
2017-Oct-03 10:28N 37°49' W 000°45'0 0.0
2017-Oct-03 10:00N 37°49' W 000°45'0 0.0
2017-Oct-03 09:30N 37°49' W 000°45'0 0.2
2017-Oct-03 09:00N 37°49' W 000°45'0 0.2
2017-Oct-03 08:30N 37°49' W 000°45'0 0.0
2017-Oct-03 08:00N 37°49' W 000°45'1 1.2
2017-Oct-03 07:30N 37°49' W 000°45'5 9.4
2017-Oct-03 07:00N 37°48' W 000°39'5 9.3
2017-Oct-03 06:30N 37°46' W 000°33'7 6.6
2017-Oct-03 05:23N 37°44' W 000°24'18 0.6
2017-Oct-01 21:46N 38°00' W 000°33'2 9.2
2017-Oct-01 21:31N 37°59' W 000°36'4 8.6
2017-Oct-01 20:59N 37°58' W 000°41'1 1.1
2017-Oct-01 20:30N 37°58' W 000°41'  
2017-Sep-29 08:03N 37°58' W 000°41'0 0.1
2017-Sep-29 07:40N 37°58' W 000°41'0 1.9
2017-Sep-29 07:30N 37°58' W 000°41'13 3.3
2017-Sep-29 03:26N 37°57' W 000°24'9 0.3
2017-Sep-27 19:33N 37°60' W 000°36'1 9.0
2017-Sep-27 19:29N 37°60' W 000°37'4 7.9
2017-Sep-27 18:59N 37°58' W 000°41'0 0.0
2017-Sep-27 09:28N 37°58' W 000°41'0 0.0
2017-Sep-27 08:58N 37°58' W 000°41'0 0.0
2017-Sep-27 08:10N 37°58' W 000°41'0 0.0
2017-Sep-27 08:00N 37°58' W 000°41'0 0.0
2017-Sep-27 06:49N 37°58' W 000°41'9 6.8
2017-Sep-27 05:30N 37°53' W 000°31'0 0.1
2017-Sep-27 05:00N 37°53' W 000°31'2 4.2
2017-Sep-27 04:30N 37°55' W 000°30'2 3.3
2017-Sep-27 03:56N 37°55' W 000°33'4 8.5
2017-Sep-27 03:30N 37°57' W 000°37'3 5.6
2017-Sep-27 02:54N 37°58' W 000°41'0 0.0
2017-Sep-27 02:28N 37°58' W 000°41'0 0.0
2017-Sep-27 01:57N 37°58' W 000°41'0 0.0
2017-Sep-27 01:28N 37°58' W 000°41'0 0.0
2017-Sep-27 00:59N 37°58' W 000°41'0 0.0
2017-Sep-27 00:30N 37°58' W 000°41'0 0.0
2017-Sep-26 23:58N 37°58' W 000°41'0 0.0
2017-Sep-26 23:30N 37°58' W 000°41'0 0.0
2017-Sep-26 22:54N 37°58' W 000°41'0 0.0
2017-Sep-26 22:29N 37°58' W 000°41'0 0.0
2017-Sep-26 21:21N 37°58' W 000°41'0 0.0
2017-Sep-26 21:00N 37°58' W 000°41'0 0.0
2017-Sep-26 20:29N 37°58' W 000°41'0 0.0
2017-Sep-26 20:00N 37°58' W 000°41'0 0.0
2017-Sep-26 19:29N 37°58' W 000°41'0 0.0
2017-Sep-26 19:00N 37°58' W 000°41'0 0.0
2017-Sep-26 18:30N 37°58' W 000°41'0 0.0
2017-Sep-26 18:00N 37°58' W 000°41'0 0.0
2017-Sep-26 17:29N 37°58' W 000°41'0 0.0
2017-Sep-26 16:59N 37°58' W 000°41'0 0.0
2017-Sep-26 16:28N 37°58' W 000°41'0 0.0
2017-Sep-26 16:00N 37°58' W 000°41'0 0.0
2017-Sep-26 15:30N 37°58' W 000°41'0 0.0
2017-Sep-26 15:00N 37°58' W 000°41'0 0.0
2017-Sep-26 14:30N 37°58' W 000°41'0 0.0
2017-Sep-26 14:00N 37°58' W 000°41'0 0.0
2017-Sep-26 10:36N 37°58' W 000°41'0 0.0
2017-Sep-26 08:47N 37°58' W 000°41'0 0.0
2017-Sep-26 08:28N 37°58' W 000°41'0 0.0
2017-Sep-26 07:59N 37°58' W 000°41'0 0.0
2017-Sep-26 07:30N 37°58' W 000°41'0 0.0
2017-Sep-26 07:00N 37°58' W 000°41'0 0.0
2017-Sep-26 02:52N 37°58' W 000°41'8 8.0
2017-Sep-26 01:54N 37°54' W 000°32'0 0.7
2017-Sep-26 01:30N 37°54' W 000°32'1 1.1
2017-Sep-26 01:00N 37°54' W 000°33'0 0.5
2017-Sep-26 00:30N 37°54' W 000°33'0 0.8
2017-Sep-26 00:00N 37°54' W 000°33'1 1.4
2017-Sep-25 23:30N 37°53' W 000°33'  

Dump ship's entire track history